sensor_id;sensor_type;location;lat;lon;timestamp;temperature;humidity
11846;DHT22;5982;37.494;-8.758;2023-05-16T00:00:21;14.40;99.90
11846;DHT22;5982;37.494;-8.758;2023-05-16T00:02:49;14.40;99.90
11846;DHT22;5982;37.494;-8.758;2023-05-16T00:05:17;14.40;99.90
11846;DHT22;5982;37.494;-8.758;2023-05-16T00:07:45;14.20;99.90
11846;DHT22;5982;37.494;-8.758;2023-05-16T00:10:13;14.20;99.90
11846;DHT22;5982;37.494;-8.758;2023-05-16T00:12:42;14.20;99.90
11846;DHT22;5982;37.494;-8.758;2023-05-16T00:15:10;14.10;99.90
11846;DHT22;5982;37.494;-8.758;2023-05-16T00:17:38;13.90;99.90
11846;DHT22;5982;37.494;-8.758;2023-05-16T00:20:08;13.80;99.90
11846;DHT22;5982;37.494;-8.758;2023-05-16T00:22:38;13.80;99.90
11846;DHT22;5982;37.494;-8.758;2023-05-16T00:25:06;13.70;99.90
11846;DHT22;5982;37.494;-8.758;2023-05-16T00:27:34;13.70;99.90
11846;DHT22;5982;37.494;-8.758;2023-05-16T00:30:04;13.70;99.90
11846;DHT22;5982;37.494;-8.758;2023-05-16T00:32:33;13.60;99.90
11846;DHT22;5982;37.494;-8.758;2023-05-16T00:35:01;13.60;99.90
11846;DHT22;5982;37.494;-8.758;2023-05-16T00:37:29;13.60;99.90
11846;DHT22;5982;37.494;-8.758;2023-05-16T00:39:57;13.50;99.90
11846;DHT22;5982;37.494;-8.758;2023-05-16T00:42:25;13.50;99.90
11846;DHT22;5982;37.494;-8.758;2023-05-16T00:44:52;13.30;99.90
11846;DHT22;5982;37.494;-8.758;2023-05-16T00:47:21;13.20;99.90
11846;DHT22;5982;37.494;-8.758;2023-05-16T00:49:49;13.20;99.90
11846;DHT22;5982;37.494;-8.758;2023-05-16T00:52:17;13.10;99.90
11846;DHT22;5982;37.494;-8.758;2023-05-16T00:54:45;13.20;99.90
11846;DHT22;5982;37.494;-8.758;2023-05-16T00:57:12;13.10;99.90
11846;DHT22;5982;37.494;-8.758;2023-05-16T00:59:40;13.10;99.90
11846;DHT22;5982;37.494;-8.758;2023-05-16T01:02:08;13.10;99.90
11846;DHT22;5982;37.494;-8.758;2023-05-16T01:04:37;13.00;99.90
11846;DHT22;5982;37.494;-8.758;2023-05-16T01:07:05;13.00;99.90
11846;DHT22;5982;37.494;-8.758;2023-05-16T01:09:33;13.00;99.90
11846;DHT22;5982;37.494;-8.758;2023-05-16T01:12:04;12.90;99.90
11846;DHT22;5982;37.494;-8.758;2023-05-16T01:14:37;12.90;99.90
11846;DHT22;5982;37.494;-8.758;2023-05-16T01:17:10;12.80;99.90
11846;DHT22;5982;37.494;-8.758;2023-05-16T01:19:49;12.80;99.90
11846;DHT22;5982;37.494;-8.758;2023-05-16T01:22:28;12.80;99.90
11846;DHT22;5982;37.494;-8.758;2023-05-16T01:25:03;12.70;99.90
11846;DHT22;5982;37.494;-8.758;2023-05-16T01:27:36;12.50;99.90
11846;DHT22;5982;37.494;-8.758;2023-05-16T01:30:15;12.40;99.90
11846;DHT22;5982;37.494;-8.758;2023-05-16T01:32:44;12.30;99.90
11846;DHT22;5982;37.494;-8.758;2023-05-16T01:35:12;12.20;99.90
11846;DHT22;5982;37.494;-8.758;2023-05-16T01:37:43;12.20;99.90
11846;DHT22;5982;37.494;-8.758;2023-05-16T01:40:15;12.30;99.90
11846;DHT22;5982;37.494;-8.758;2023-05-16T01:42:49;12.30;99.90
11846;DHT22;5982;37.494;-8.758;2023-05-16T01:45:19;12.40;99.90
11846;DHT22;5982;37.494;-8.758;2023-05-16T01:47:51;12.40;99.90
11846;DHT22;5982;37.494;-8.758;2023-05-16T01:50:25;12.50;99.90
11846;DHT22;5982;37.494;-8.758;2023-05-16T01:52:57;12.50;99.90
11846;DHT22;5982;37.494;-8.758;2023-05-16T01:55:28;12.40;99.90
11846;DHT22;5982;37.494;-8.758;2023-05-16T01:58:09;12.30;99.90
11846;DHT22;5982;37.494;-8.758;2023-05-16T02:00:38;12.20;99.90
11846;DHT22;5982;37.494;-8.758;2023-05-16T02:03:06;12.20;99.90
11846;DHT22;5982;37.494;-8.758;2023-05-16T02:05:34;12.10;99.90
11846;DHT22;5982;37.494;-8.758;2023-05-16T02:08:02;12.00;99.90
11846;DHT22;5982;37.494;-8.758;2023-05-16T02:10:30;11.80;99.90
11846;DHT22;5982;37.494;-8.758;2023-05-16T02:12:58;11.80;99.90
11846;DHT22;5982;37.494;-8.758;2023-05-16T02:15:27;11.80;99.90
11846;DHT22;5982;37.494;-8.758;2023-05-16T02:17:55;11.90;99.90
11846;DHT22;5982;37.494;-8.758;2023-05-16T02:20:23;11.90;99.90
11846;DHT22;5982;37.494;-8.758;2023-05-16T02:22:51;11.90;99.90
11846;DHT22;5982;37.494;-8.758;2023-05-16T02:25:18;11.90;99.90
11846;DHT22;5982;37.494;-8.758;2023-05-16T02:27:46;11.90;99.90
11846;DHT22;5982;37.494;-8.758;2023-05-16T02:30:14;11.90;99.90
11846;DHT22;5982;37.494;-8.758;2023-05-16T02:32:43;11.90;99.90
11846;DHT22;5982;37.494;-8.758;2023-05-16T02:35:11;12.00;99.90
11846;DHT22;5982;37.494;-8.758;2023-05-16T02:37:39;11.90;99.90
11846;DHT22;5982;37.494;-8.758;2023-05-16T02:40:07;11.90;99.90
11846;DHT22;5982;37.494;-8.758;2023-05-16T02:42:36;12.00;99.90
11846;DHT22;5982;37.494;-8.758;2023-05-16T02:45:04;12.20;99.90
11846;DHT22;5982;37.494;-8.758;2023-05-16T02:47:32;12.30;99.90
11846;DHT22;5982;37.494;-8.758;2023-05-16T02:50:01;12.40;99.90
11846;DHT22;5982;37.494;-8.758;2023-05-16T02:52:29;12.40;99.90
11846;DHT22;5982;37.494;-8.758;2023-05-16T02:54:57;12.40;99.90
11846;DHT22;5982;37.494;-8.758;2023-05-16T02:57:24;12.50;99.90
11846;DHT22;5982;37.494;-8.758;2023-05-16T02:59:52;12.60;99.90
11846;DHT22;5982;37.494;-8.758;2023-05-16T03:02:19;12.70;99.90
11846;DHT22;5982;37.494;-8.758;2023-05-16T03:04:47;12.80;99.90
11846;DHT22;5982;37.494;-8.758;2023-05-16T03:07:16;12.70;99.90
11846;DHT22;5982;37.494;-8.758;2023-05-16T03:09:44;12.70;99.90
11846;DHT22;5982;37.494;-8.758;2023-05-16T03:12:12;12.70;99.90
11846;DHT22;5982;37.494;-8.758;2023-05-16T03:14:40;12.70;99.90
11846;DHT22;5982;37.494;-8.758;2023-05-16T03:17:07;12.60;99.90
11846;DHT22;5982;37.494;-8.758;2023-05-16T03:19:35;12.70;99.90
11846;DHT22;5982;37.494;-8.758;2023-05-16T03:22:03;12.70;99.90
11846;DHT22;5982;37.494;-8.758;2023-05-16T03:24:32;12.80;99.90
11846;DHT22;5982;37.494;-8.758;2023-05-16T03:27:00;12.90;99.90
11846;DHT22;5982;37.494;-8.758;2023-05-16T03:29:28;12.90;99.90
11846;DHT22;5982;37.494;-8.758;2023-05-16T03:31:55;12.90;99.90
11846;DHT22;5982;37.494;-8.758;2023-05-16T03:34:23;12.90;99.90
11846;DHT22;5982;37.494;-8.758;2023-05-16T03:36:51;12.90;99.90
11846;DHT22;5982;37.494;-8.758;2023-05-16T03:39:18;12.90;99.90
11846;DHT22;5982;37.494;-8.758;2023-05-16T03:41:48;12.90;99.90
11846;DHT22;5982;37.494;-8.758;2023-05-16T03:44:16;12.80;99.90
11846;DHT22;5982;37.494;-8.758;2023-05-16T03:46:44;12.80;99.90
11846;DHT22;5982;37.494;-8.758;2023-05-16T03:49:11;12.80;99.90
11846;DHT22;5982;37.494;-8.758;2023-05-16T03:51:39;12.80;99.90
11846;DHT22;5982;37.494;-8.758;2023-05-16T03:54:07;12.80;99.90
11846;DHT22;5982;37.494;-8.758;2023-05-16T03:56:35;12.70;99.90
11846;DHT22;5982;37.494;-8.758;2023-05-16T03:59:04;12.70;99.90
11846;DHT22;5982;37.494;-8.758;2023-05-16T04:01:32;12.70;99.90
11846;DHT22;5982;37.494;-8.758;2023-05-16T04:03:59;12.80;99.90
11846;DHT22;5982;37.494;-8.758;2023-05-16T04:06:27;12.80;99.90
11846;DHT22;5982;37.494;-8.758;2023-05-16T04:08:55;12.80;99.90
11846;DHT22;5982;37.494;-8.758;2023-05-16T04:11:22;12.80;99.90
11846;DHT22;5982;37.494;-8.758;2023-05-16T04:13:51;12.80;99.90
11846;DHT22;5982;37.494;-8.758;2023-05-16T04:16:21;12.80;99.90
11846;DHT22;5982;37.494;-8.758;2023-05-16T04:18:48;12.80;99.90
11846;DHT22;5982;37.494;-8.758;2023-05-16T04:21:16;12.80;99.90
11846;DHT22;5982;37.494;-8.758;2023-05-16T04:23:44;12.90;99.90
11846;DHT22;5982;37.494;-8.758;2023-05-16T04:26:12;13.10;99.90
11846;DHT22;5982;37.494;-8.758;2023-05-16T04:28:39;13.10;99.90
11846;DHT22;5982;37.494;-8.758;2023-05-16T04:31:07;13.00;99.90
11846;DHT22;5982;37.494;-8.758;2023-05-16T04:33:37;12.90;99.90
11846;DHT22;5982;37.494;-8.758;2023-05-16T04:36:05;12.90;99.90
11846;DHT22;5982;37.494;-8.758;2023-05-16T04:38:33;12.80;99.90
11846;DHT22;5982;37.494;-8.758;2023-05-16T04:41:00;12.70;99.90
11846;DHT22;5982;37.494;-8.758;2023-05-16T04:43:28;12.70;99.90
11846;DHT22;5982;37.494;-8.758;2023-05-16T04:45:56;12.70;99.90
11846;DHT22;5982;37.494;-8.758;2023-05-16T04:48:24;12.80;99.90
11846;DHT22;5982;37.494;-8.758;2023-05-16T04:50:53;12.90;99.90
11846;DHT22;5982;37.494;-8.758;2023-05-16T04:53:21;12.90;99.90
11846;DHT22;5982;37.494;-8.758;2023-05-16T04:55:49;13.00;99.90
11846;DHT22;5982;37.494;-8.758;2023-05-16T04:58:16;13.00;99.90
11846;DHT22;5982;37.494;-8.758;2023-05-16T05:00:44;13.00;99.90
11846;DHT22;5982;37.494;-8.758;2023-05-16T05:03:12;12.90;99.90
11846;DHT22;5982;37.494;-8.758;2023-05-16T05:05:39;12.90;99.90
11846;DHT22;5982;37.494;-8.758;2023-05-16T05:08:09;12.80;99.90
11846;DHT22;5982;37.494;-8.758;2023-05-16T05:10:36;12.80;99.90
11846;DHT22;5982;37.494;-8.758;2023-05-16T05:13:04;12.70;99.90
11846;DHT22;5982;37.494;-8.758;2023-05-16T05:15:32;12.80;99.90
11846;DHT22;5982;37.494;-8.758;2023-05-16T05:18:00;12.80;99.90
11846;DHT22;5982;37.494;-8.758;2023-05-16T05:20:28;12.90;99.90
11846;DHT22;5982;37.494;-8.758;2023-05-16T05:22:55;13.00;99.90
11846;DHT22;5982;37.494;-8.758;2023-05-16T05:25:24;13.00;99.90
11846;DHT22;5982;37.494;-8.758;2023-05-16T05:27:52;13.00;99.90
11846;DHT22;5982;37.494;-8.758;2023-05-16T05:30:20;13.00;99.90
11846;DHT22;5982;37.494;-8.758;2023-05-16T05:32:47;13.00;99.90
11846;DHT22;5982;37.494;-8.758;2023-05-16T05:35:15;12.90;99.90
11846;DHT22;5982;37.494;-8.758;2023-05-16T05:37:43;12.80;99.90
11846;DHT22;5982;37.494;-8.758;2023-05-16T05:40:11;12.70;99.90
11846;DHT22;5982;37.494;-8.758;2023-05-16T05:42:40;12.70;99.90
11846;DHT22;5982;37.494;-8.758;2023-05-16T05:45:08;12.60;99.90
11846;DHT22;5982;37.494;-8.758;2023-05-16T05:47:36;12.60;99.90
11846;DHT22;5982;37.494;-8.758;2023-05-16T05:50:04;12.60;99.90
11846;DHT22;5982;37.494;-8.758;2023-05-16T05:52:33;12.70;99.90
11846;DHT22;5982;37.494;-8.758;2023-05-16T05:55:01;12.90;99.90
11846;DHT22;5982;37.494;-8.758;2023-05-16T05:57:29;13.40;99.90
11846;DHT22;5982;37.494;-8.758;2023-05-16T05:59:58;14.00;99.90
11846;DHT22;5982;37.494;-8.758;2023-05-16T06:02:26;14.50;99.90
11846;DHT22;5982;37.494;-8.758;2023-05-16T06:04:53;15.10;99.90
11846;DHT22;5982;37.494;-8.758;2023-05-16T06:07:21;15.60;99.90
11846;DHT22;5982;37.494;-8.758;2023-05-16T06:09:49;16.10;99.90
11846;DHT22;5982;37.494;-8.758;2023-05-16T06:12:16;16.50;99.90
11846;DHT22;5982;37.494;-8.758;2023-05-16T06:14:44;17.10;99.90
11846;DHT22;5982;37.494;-8.758;2023-05-16T06:17:13;17.60;99.90
11846;DHT22;5982;37.494;-8.758;2023-05-16T06:19:41;18.10;99.90
11846;DHT22;5982;37.494;-8.758;2023-05-16T06:22:09;18.70;99.90
11846;DHT22;5982;37.494;-8.758;2023-05-16T06:24:36;19.10;99.90
11846;DHT22;5982;37.494;-8.758;2023-05-16T06:27:04;19.70;99.90
11846;DHT22;5982;37.494;-8.758;2023-05-16T06:29:32;20.20;99.90
11846;DHT22;5982;37.494;-8.758;2023-05-16T06:32:00;21.10;99.90
11846;DHT22;5982;37.494;-8.758;2023-05-16T06:34:29;21.90;99.90
11846;DHT22;5982;37.494;-8.758;2023-05-16T06:36:57;22.60;99.90
11846;DHT22;5982;37.494;-8.758;2023-05-16T06:39:24;23.30;99.90
11846;DHT22;5982;37.494;-8.758;2023-05-16T06:41:52;23.80;99.90
11846;DHT22;5982;37.494;-8.758;2023-05-16T06:44:20;24.00;99.90
11846;DHT22;5982;37.494;-8.758;2023-05-16T06:46:48;24.40;99.90
11846;DHT22;5982;37.494;-8.758;2023-05-16T06:49:16;24.60;99.90
11846;DHT22;5982;37.494;-8.758;2023-05-16T06:51:45;24.40;99.90
11846;DHT22;5982;37.494;-8.758;2023-05-16T06:54:12;23.90;99.90
11846;DHT22;5982;37.494;-8.758;2023-05-16T06:56:40;23.50;99.90
11846;DHT22;5982;37.494;-8.758;2023-05-16T06:59:08;23.30;99.90
11846;DHT22;5982;37.494;-8.758;2023-05-16T07:01:35;23.20;99.90
11846;DHT22;5982;37.494;-8.758;2023-05-16T07:04:03;22.60;99.90
11846;DHT22;5982;37.494;-8.758;2023-05-16T07:06:31;22.30;99.90
11846;DHT22;5982;37.494;-8.758;2023-05-16T07:09:01;22.20;99.90
11846;DHT22;5982;37.494;-8.758;2023-05-16T07:11:29;22.00;99.90
11846;DHT22;5982;37.494;-8.758;2023-05-16T07:13:56;21.60;99.90
11846;DHT22;5982;37.494;-8.758;2023-05-16T07:16:24;21.40;99.90
11846;DHT22;5982;37.494;-8.758;2023-05-16T07:18:53;21.10;99.90
11846;DHT22;5982;37.494;-8.758;2023-05-16T07:21:20;20.50;99.90
11846;DHT22;5982;37.494;-8.758;2023-05-16T07:23:48;20.30;99.90
11846;DHT22;5982;37.494;-8.758;2023-05-16T07:26:17;20.20;99.90
11846;DHT22;5982;37.494;-8.758;2023-05-16T07:28:48;20.10;99.90
11846;DHT22;5982;37.494;-8.758;2023-05-16T07:31:15;20.00;99.90
11846;DHT22;5982;37.494;-8.758;2023-05-16T07:33:43;20.00;99.90
11846;DHT22;5982;37.494;-8.758;2023-05-16T07:36:11;19.90;99.90
11846;DHT22;5982;37.494;-8.758;2023-05-16T07:38:39;20.00;99.90
11846;DHT22;5982;37.494;-8.758;2023-05-16T07:41:07;20.00;99.90
11846;DHT22;5982;37.494;-8.758;2023-05-16T07:43:36;20.00;99.90
11846;DHT22;5982;37.494;-8.758;2023-05-16T07:46:04;20.10;99.90
11846;DHT22;5982;37.494;-8.758;2023-05-16T07:48:32;20.00;99.90
11846;DHT22;5982;37.494;-8.758;2023-05-16T07:51:00;20.00;99.90
11846;DHT22;5982;37.494;-8.758;2023-05-16T07:53:27;20.10;99.90
11846;DHT22;5982;37.494;-8.758;2023-05-16T07:55:55;20.20;99.90
11846;DHT22;5982;37.494;-8.758;2023-05-16T07:58:23;20.20;99.90
11846;DHT22;5982;37.494;-8.758;2023-05-16T08:00:52;20.30;99.90
11846;DHT22;5982;37.494;-8.758;2023-05-16T08:03:19;20.50;99.90
11846;DHT22;5982;37.494;-8.758;2023-05-16T08:05:47;20.20;99.90
11846;DHT22;5982;37.494;-8.758;2023-05-16T08:08:16;20.20;99.90
11846;DHT22;5982;37.494;-8.758;2023-05-16T08:10:44;20.30;99.90
11846;DHT22;5982;37.494;-8.758;2023-05-16T08:13:11;20.40;99.90
11846;DHT22;5982;37.494;-8.758;2023-05-16T08:15:39;20.60;99.90
11846;DHT22;5982;37.494;-8.758;2023-05-16T08:18:12;20.90;99.90
11846;DHT22;5982;37.494;-8.758;2023-05-16T08:20:40;21.10;99.90
11846;DHT22;5982;37.494;-8.758;2023-05-16T08:23:08;21.30;99.90
11846;DHT22;5982;37.494;-8.758;2023-05-16T08:25:36;21.30;99.90
11846;DHT22;5982;37.494;-8.758;2023-05-16T08:28:04;21.40;99.90
11846;DHT22;5982;37.494;-8.758;2023-05-16T08:30:31;21.60;99.90
11846;DHT22;5982;37.494;-8.758;2023-05-16T08:32:59;21.80;99.90
11846;DHT22;5982;37.494;-8.758;2023-05-16T08:35:31;21.90;99.90
11846;DHT22;5982;37.494;-8.758;2023-05-16T08:37:59;22.00;99.90
11846;DHT22;5982;37.494;-8.758;2023-05-16T08:40:27;22.20;99.90
11846;DHT22;5982;37.494;-8.758;2023-05-16T08:42:55;22.30;99.90
11846;DHT22;5982;37.494;-8.758;2023-05-16T08:45:24;22.40;99.90
11846;DHT22;5982;37.494;-8.758;2023-05-16T08:47:53;22.50;99.90
11846;DHT22;5982;37.494;-8.758;2023-05-16T08:50:21;22.50;99.90
11846;DHT22;5982;37.494;-8.758;2023-05-16T08:52:51;22.60;99.90
11846;DHT22;5982;37.494;-8.758;2023-05-16T08:55:19;22.60;99.90
11846;DHT22;5982;37.494;-8.758;2023-05-16T08:57:48;22.70;99.90
11846;DHT22;5982;37.494;-8.758;2023-05-16T09:00:17;22.80;99.90
11846;DHT22;5982;37.494;-8.758;2023-05-16T09:02:45;22.80;99.90
11846;DHT22;5982;37.494;-8.758;2023-05-16T09:05:13;23.00;99.90
11846;DHT22;5982;37.494;-8.758;2023-05-16T09:07:41;23.10;99.90
11846;DHT22;5982;37.494;-8.758;2023-05-16T09:10:11;23.30;99.90
11846;DHT22;5982;37.494;-8.758;2023-05-16T09:12:39;23.30;99.90
11846;DHT22;5982;37.494;-8.758;2023-05-16T09:15:08;23.40;99.90
11846;DHT22;5982;37.494;-8.758;2023-05-16T09:17:37;23.50;99.90
11846;DHT22;5982;37.494;-8.758;2023-05-16T09:20:09;23.60;99.90
11846;DHT22;5982;37.494;-8.758;2023-05-16T09:22:38;23.80;99.90
11846;DHT22;5982;37.494;-8.758;2023-05-16T09:25:06;24.20;99.90
11846;DHT22;5982;37.494;-8.758;2023-05-16T09:27:36;24.50;99.90
11846;DHT22;5982;37.494;-8.758;2023-05-16T09:30:04;24.70;99.90
11846;DHT22;5982;37.494;-8.758;2023-05-16T09:32:32;24.80;99.90
11846;DHT22;5982;37.494;-8.758;2023-05-16T09:35:00;24.90;99.90
11846;DHT22;5982;37.494;-8.758;2023-05-16T09:37:28;25.10;99.90
11846;DHT22;5982;37.494;-8.758;2023-05-16T09:39:57;25.10;99.90
11846;DHT22;5982;37.494;-8.758;2023-05-16T09:42:24;25.20;99.90
11846;DHT22;5982;37.494;-8.758;2023-05-16T09:44:54;25.20;99.90
11846;DHT22;5982;37.494;-8.758;2023-05-16T09:47:22;25.20;99.90
11846;DHT22;5982;37.494;-8.758;2023-05-16T09:49:51;25.20;99.90
11846;DHT22;5982;37.494;-8.758;2023-05-16T09:52:21;25.30;99.90
11846;DHT22;5982;37.494;-8.758;2023-05-16T09:54:49;25.10;99.90
11846;DHT22;5982;37.494;-8.758;2023-05-16T09:57:17;25.20;99.90
11846;DHT22;5982;37.494;-8.758;2023-05-16T09:59:46;25.30;99.90
11846;DHT22;5982;37.494;-8.758;2023-05-16T10:02:15;25.70;99.90
11846;DHT22;5982;37.494;-8.758;2023-05-16T10:04:43;26.10;99.90
11846;DHT22;5982;37.494;-8.758;2023-05-16T10:07:11;26.30;99.90
11846;DHT22;5982;37.494;-8.758;2023-05-16T10:09:39;26.30;99.90
11846;DHT22;5982;37.494;-8.758;2023-05-16T10:12:07;26.20;99.90
11846;DHT22;5982;37.494;-8.758;2023-05-16T10:14:38;26.40;99.90
11846;DHT22;5982;37.494;-8.758;2023-05-16T10:17:07;26.50;99.90
11846;DHT22;5982;37.494;-8.758;2023-05-16T10:19:40;26.70;99.90
11846;DHT22;5982;37.494;-8.758;2023-05-16T10:22:08;27.00;99.90
11846;DHT22;5982;37.494;-8.758;2023-05-16T10:24:38;26.90;99.90
11846;DHT22;5982;37.494;-8.758;2023-05-16T10:27:10;27.00;99.90
11846;DHT22;5982;37.494;-8.758;2023-05-16T10:29:38;27.20;99.90
11846;DHT22;5982;37.494;-8.758;2023-05-16T10:32:06;27.00;99.90
11846;DHT22;5982;37.494;-8.758;2023-05-16T10:34:34;27.30;99.90
11846;DHT22;5982;37.494;-8.758;2023-05-16T10:37:04;27.20;99.90
11846;DHT22;5982;37.494;-8.758;2023-05-16T10:39:32;27.10;99.90
11846;DHT22;5982;37.494;-8.758;2023-05-16T10:42:00;27.40;99.90
11846;DHT22;5982;37.494;-8.758;2023-05-16T10:44:29;27.70;99.90
11846;DHT22;5982;37.494;-8.758;2023-05-16T10:46:59;27.90;99.90
11846;DHT22;5982;37.494;-8.758;2023-05-16T10:49:29;28.10;99.90
11846;DHT22;5982;37.494;-8.758;2023-05-16T10:52:06;27.70;99.90
11846;DHT22;5982;37.494;-8.758;2023-05-16T10:54:35;27.20;99.90
11846;DHT22;5982;37.494;-8.758;2023-05-16T10:57:04;27.00;99.90
11846;DHT22;5982;37.494;-8.758;2023-05-16T10:59:40;26.70;99.90
11846;DHT22;5982;37.494;-8.758;2023-05-16T11:02:24;26.40;99.90
11846;DHT22;5982;37.494;-8.758;2023-05-16T11:04:54;25.90;99.90
11846;DHT22;5982;37.494;-8.758;2023-05-16T11:07:30;25.80;99.90
11846;DHT22;5982;37.494;-8.758;2023-05-16T11:10:07;25.70;99.90
11846;DHT22;5982;37.494;-8.758;2023-05-16T11:12:36;25.90;99.90
11846;DHT22;5982;37.494;-8.758;2023-05-16T11:15:21;26.10;99.90
11846;DHT22;5982;37.494;-8.758;2023-05-16T11:17:50;26.30;99.90
11846;DHT22;5982;37.494;-8.758;2023-05-16T11:20:31;26.20;99.90
11846;DHT22;5982;37.494;-8.758;2023-05-16T11:23:20;26.20;99.90
11846;DHT22;5982;37.494;-8.758;2023-05-16T11:25:51;26.20;99.90
11846;DHT22;5982;37.494;-8.758;2023-05-16T11:28:20;26.00;99.90
11846;DHT22;5982;37.494;-8.758;2023-05-16T11:30:49;25.90;99.90
11846;DHT22;5982;37.494;-8.758;2023-05-16T11:33:19;26.00;99.90
11846;DHT22;5982;37.494;-8.758;2023-05-16T11:36:00;25.90;99.90
11846;DHT22;5982;37.494;-8.758;2023-05-16T11:38:31;25.60;99.90
11846;DHT22;5982;37.494;-8.758;2023-05-16T11:41:03;25.40;99.90
11846;DHT22;5982;37.494;-8.758;2023-05-16T11:43:40;25.10;99.90
11846;DHT22;5982;37.494;-8.758;2023-05-16T11:46:10;24.80;99.90
11846;DHT22;5982;37.494;-8.758;2023-05-16T11:48:38;24.70;99.90
11846;DHT22;5982;37.494;-8.758;2023-05-16T11:51:06;24.60;99.90
11846;DHT22;5982;37.494;-8.758;2023-05-16T11:53:35;24.50;99.90
11846;DHT22;5982;37.494;-8.758;2023-05-16T11:56:05;24.40;99.90
11846;DHT22;5982;37.494;-8.758;2023-05-16T11:58:34;24.60;99.90
11846;DHT22;5982;37.494;-8.758;2023-05-16T12:01:03;24.70;99.90
11846;DHT22;5982;37.494;-8.758;2023-05-16T12:03:31;24.80;99.90
11846;DHT22;5982;37.494;-8.758;2023-05-16T12:05:59;25.00;99.90
11846;DHT22;5982;37.494;-8.758;2023-05-16T12:08:27;25.30;99.90
11846;DHT22;5982;37.494;-8.758;2023-05-16T12:10:56;25.50;99.90
11846;DHT22;5982;37.494;-8.758;2023-05-16T12:13:24;25.40;99.90
11846;DHT22;5982;37.494;-8.758;2023-05-16T12:15:52;25.20;99.90
11846;DHT22;5982;37.494;-8.758;2023-05-16T12:18:20;25.00;99.90
11846;DHT22;5982;37.494;-8.758;2023-05-16T12:20:48;25.00;99.90
11846;DHT22;5982;37.494;-8.758;2023-05-16T12:23:15;25.00;99.90
11846;DHT22;5982;37.494;-8.758;2023-05-16T12:25:44;24.80;99.90
11846;DHT22;5982;37.494;-8.758;2023-05-16T12:28:15;25.00;99.90
11846;DHT22;5982;37.494;-8.758;2023-05-16T12:30:43;25.20;99.90
11846;DHT22;5982;37.494;-8.758;2023-05-16T12:33:13;25.20;99.90
11846;DHT22;5982;37.494;-8.758;2023-05-16T12:35:42;25.00;99.90
11846;DHT22;5982;37.494;-8.758;2023-05-16T12:38:11;25.00;99.90
11846;DHT22;5982;37.494;-8.758;2023-05-16T12:40:40;25.20;99.90
11846;DHT22;5982;37.494;-8.758;2023-05-16T12:43:12;25.30;99.90
11846;DHT22;5982;37.494;-8.758;2023-05-16T12:45:42;25.40;99.90
11846;DHT22;5982;37.494;-8.758;2023-05-16T12:48:16;25.40;99.90
11846;DHT22;5982;37.494;-8.758;2023-05-16T12:50:43;25.30;99.90
11846;DHT22;5982;37.494;-8.758;2023-05-16T12:53:13;25.20;99.90
11846;DHT22;5982;37.494;-8.758;2023-05-16T12:55:42;25.40;99.90
11846;DHT22;5982;37.494;-8.758;2023-05-16T12:58:10;25.40;99.90
11846;DHT22;5982;37.494;-8.758;2023-05-16T13:00:38;25.50;99.90
11846;DHT22;5982;37.494;-8.758;2023-05-16T13:03:07;25.70;99.90
11846;DHT22;5982;37.494;-8.758;2023-05-16T13:05:35;25.70;99.90
11846;DHT22;5982;37.494;-8.758;2023-05-16T13:08:02;25.70;99.90
11846;DHT22;5982;37.494;-8.758;2023-05-16T13:10:30;25.50;99.90
11846;DHT22;5982;37.494;-8.758;2023-05-16T13:12:58;25.70;99.90
11846;DHT22;5982;37.494;-8.758;2023-05-16T13:15:26;25.80;99.90
11846;DHT22;5982;37.494;-8.758;2023-05-16T13:17:53;25.80;99.90
11846;DHT22;5982;37.494;-8.758;2023-05-16T13:20:23;26.00;99.90
11846;DHT22;5982;37.494;-8.758;2023-05-16T13:22:51;26.20;99.90
11846;DHT22;5982;37.494;-8.758;2023-05-16T13:25:19;26.20;99.90
11846;DHT22;5982;37.494;-8.758;2023-05-16T13:27:46;26.20;99.90
11846;DHT22;5982;37.494;-8.758;2023-05-16T13:30:14;26.30;99.90
11846;DHT22;5982;37.494;-8.758;2023-05-16T13:32:42;26.10;99.90
11846;DHT22;5982;37.494;-8.758;2023-05-16T13:35:09;26.10;99.90
11846;DHT22;5982;37.494;-8.758;2023-05-16T13:37:39;26.20;99.90
11846;DHT22;5982;37.494;-8.758;2023-05-16T13:40:07;26.10;99.90
11846;DHT22;5982;37.494;-8.758;2023-05-16T13:42:35;26.20;99.90
11846;DHT22;5982;37.494;-8.758;2023-05-16T13:45:04;26.50;99.90
11846;DHT22;5982;37.494;-8.758;2023-05-16T13:47:32;26.60;99.90
11846;DHT22;5982;37.494;-8.758;2023-05-16T13:50:00;26.90;99.90
11846;DHT22;5982;37.494;-8.758;2023-05-16T13:52:32;26.90;99.90
11846;DHT22;5982;37.494;-8.758;2023-05-16T13:55:02;27.00;99.90
11846;DHT22;5982;37.494;-8.758;2023-05-16T13:57:30;26.70;99.90
11846;DHT22;5982;37.494;-8.758;2023-05-16T13:59:57;26.50;99.90
11846;DHT22;5982;37.494;-8.758;2023-05-16T14:02:25;26.30;99.90
11846;DHT22;5982;37.494;-8.758;2023-05-16T14:04:53;26.40;99.90
11846;DHT22;5982;37.494;-8.758;2023-05-16T14:07:20;26.30;99.90
11846;DHT22;5982;37.494;-8.758;2023-05-16T14:09:48;26.30;99.90
11846;DHT22;5982;37.494;-8.758;2023-05-16T14:12:17;26.40;99.90
11846;DHT22;5982;37.494;-8.758;2023-05-16T14:14:46;26.60;99.90
11846;DHT22;5982;37.494;-8.758;2023-05-16T14:17:13;26.60;99.90
11846;DHT22;5982;37.494;-8.758;2023-05-16T14:19:41;26.70;99.90
11846;DHT22;5982;37.494;-8.758;2023-05-16T14:22:08;26.70;99.90
11846;DHT22;5982;37.494;-8.758;2023-05-16T14:24:36;26.60;99.90
11846;DHT22;5982;37.494;-8.758;2023-05-16T14:27:04;26.60;99.90
11846;DHT22;5982;37.494;-8.758;2023-05-16T14:29:33;26.70;99.90
11846;DHT22;5982;37.494;-8.758;2023-05-16T14:32:01;26.80;99.90
11846;DHT22;5982;37.494;-8.758;2023-05-16T14:34:28;26.80;99.90
11846;DHT22;5982;37.494;-8.758;2023-05-16T14:36:56;27.00;99.90
11846;DHT22;5982;37.494;-8.758;2023-05-16T14:39:24;27.10;99.90
11846;DHT22;5982;37.494;-8.758;2023-05-16T14:41:52;27.00;99.90
11846;DHT22;5982;37.494;-8.758;2023-05-16T14:44:20;27.30;99.90
11846;DHT22;5982;37.494;-8.758;2023-05-16T14:46:50;27.50;99.90
11846;DHT22;5982;37.494;-8.758;2023-05-16T14:49:18;27.40;99.90
11846;DHT22;5982;37.494;-8.758;2023-05-16T14:51:46;27.30;99.90
11846;DHT22;5982;37.494;-8.758;2023-05-16T14:54:15;27.30;99.90
11846;DHT22;5982;37.494;-8.758;2023-05-16T14:56:43;26.90;99.90
11846;DHT22;5982;37.494;-8.758;2023-05-16T14:59:11;27.00;99.90
11846;DHT22;5982;37.494;-8.758;2023-05-16T15:01:39;27.00;99.90
11846;DHT22;5982;37.494;-8.758;2023-05-16T15:04:08;26.80;99.90
11846;DHT22;5982;37.494;-8.758;2023-05-16T15:06:36;26.80;99.90
11846;DHT22;5982;37.494;-8.758;2023-05-16T15:09:03;26.80;99.90
11846;DHT22;5982;37.494;-8.758;2023-05-16T15:11:31;26.70;99.90
11846;DHT22;5982;37.494;-8.758;2023-05-16T15:13:59;26.50;99.90
11846;DHT22;5982;37.494;-8.758;2023-05-16T15:16:26;26.40;99.90
11846;DHT22;5982;37.494;-8.758;2023-05-16T15:18:55;26.10;99.90
11846;DHT22;5982;37.494;-8.758;2023-05-16T15:21:25;26.00;99.90
11846;DHT22;5982;37.494;-8.758;2023-05-16T15:23:53;25.80;99.90
11846;DHT22;5982;37.494;-8.758;2023-05-16T15:26:21;25.70;99.90
11846;DHT22;5982;37.494;-8.758;2023-05-16T15:28:49;25.90;99.90
11846;DHT22;5982;37.494;-8.758;2023-05-16T15:31:17;26.10;99.90
11846;DHT22;5982;37.494;-8.758;2023-05-16T15:33:44;26.30;99.90
11846;DHT22;5982;37.494;-8.758;2023-05-16T15:36:13;26.40;99.90
11846;DHT22;5982;37.494;-8.758;2023-05-16T15:38:42;26.70;99.90